createdAt,value
2018-01-14T00:00:20.506Z,13.67
2018-01-14T00:02:47.978Z,15.70
2018-01-14T00:05:15.430Z,15.43
2018-01-14T00:07:42.935Z,13.47
2018-01-14T00:10:10.395Z,13.67
2018-01-14T00:12:37.848Z,13.13
2018-01-14T00:15:05.409Z,12.93
2018-01-14T00:17:32.862Z,15.77
2018-01-14T00:20:00.335Z,14.97
2018-01-14T00:22:27.786Z,13.80
2018-01-14T00:24:55.255Z,13.13
2018-01-14T00:27:22.740Z,14.63
2018-01-14T00:29:50.206Z,13.63
2018-01-14T00:32:17.655Z,12.40
2018-01-14T00:34:45.124Z,13.30
2018-01-14T00:37:12.571Z,13.57
2018-01-14T00:39:40.157Z,15.27
2018-01-14T00:42:07.615Z,15.20
2018-01-14T00:44:35.095Z,13.30
2018-01-14T00:47:02.613Z,13.47
2018-01-14T00:49:30.107Z,13.63
2018-01-14T00:51:57.579Z,14.13
2018-01-14T00:54:25.031Z,13.67
2018-01-14T00:56:52.500Z,13.23
2018-01-14T00:59:20.033Z,14.07
2018-01-14T01:01:47.499Z,12.07
2018-01-14T01:04:15.071Z,14.93
2018-01-14T01:06:42.540Z,13.80
2018-01-14T01:09:09.986Z,14.17
2018-01-14T01:11:37.450Z,14.50
2018-01-14T01:14:04.903Z,14.33
2018-01-14T01:16:32.511Z,12.40
2018-01-14T01:19:00.005Z,13.17
2018-01-14T01:21:27.477Z,14.63
2018-01-14T01:23:55.008Z,11.80
2018-01-14T01:26:22.454Z,12.07
2018-01-14T01:28:49.925Z,15.10
2018-01-14T01:31:17.397Z,13.23
2018-01-14T01:33:44.866Z,13.20
2018-01-14T01:36:12.315Z,14.30
2018-01-14T01:38:39.848Z,14.83
2018-01-14T01:41:08.175Z,14.10
2018-01-14T01:43:35.667Z,13.67
2018-01-14T01:46:03.120Z,12.20
2018-01-14T01:48:30.588Z,12.37
2018-01-14T01:50:58.103Z,12.87
2018-01-14T01:53:25.721Z,13.63
2018-01-14T01:55:53.173Z,13.50
2018-01-14T01:58:20.700Z,12.60
2018-01-14T02:00:48.239Z,13.60
2018-01-14T02:03:15.695Z,12.03
2018-01-14T02:05:43.166Z,13.70
2018-01-14T02:08:10.625Z,14.00
2018-01-14T02:10:38.095Z,13.27
2018-01-14T02:13:05.550Z,13.60
2018-01-14T02:15:33.019Z,12.27
2018-01-14T02:18:00.535Z,15.20
2018-01-14T02:20:28.010Z,14.17
2018-01-14T02:22:55.446Z,13.80
2018-01-14T02:25:22.914Z,13.87
2018-01-14T02:27:50.412Z,12.20
2018-01-14T02:30:17.922Z,14.70
2018-01-14T02:32:45.376Z,14.53
2018-01-14T02:35:12.812Z,14.20
2018-01-14T02:37:40.391Z,13.60
2018-01-14T02:40:07.838Z,14.40
2018-01-14T02:42:35.410Z,12.77
2018-01-14T02:45:02.855Z,15.00
2018-01-14T02:47:30.330Z,14.73
2018-01-14T02:49:57.786Z,16.20
2018-01-14T02:52:25.253Z,15.07
2018-01-14T02:54:52.704Z,13.97
2018-01-14T02:57:20.179Z,14.40
2018-01-14T02:59:47.631Z,15.00
2018-01-14T03:02:15.094Z,14.83
2018-01-14T03:04:42.545Z,14.60
2018-01-14T03:07:10.009Z,15.60
2018-01-14T03:09:37.463Z,15.43
2018-01-14T03:12:04.933Z,13.40
2018-01-14T03:14:32.443Z,16.70
2018-01-14T03:16:59.890Z,14.97
2018-01-14T03:19:27.345Z,15.10
2018-01-14T03:21:54.776Z,15.90
2018-01-14T03:24:22.247Z,14.53
2018-01-14T03:26:49.694Z,16.47
2018-01-14T03:29:17.156Z,14.10
2018-01-14T03:31:44.588Z,15.87
2018-01-14T03:34:12.063Z,14.50
2018-01-14T03:36:39.551Z,15.90
2018-01-14T03:39:07.019Z,16.10
2018-01-14T03:41:34.518Z,15.93
2018-01-14T03:44:01.994Z,15.60
2018-01-14T03:46:29.885Z,16.17
2018-01-14T03:48:57.366Z,14.70
2018-01-14T03:51:24.817Z,16.87
2018-01-14T03:53:52.271Z,15.80
2018-01-14T03:56:19.741Z,14.10
2018-01-14T03:58:47.185Z,13.90
2018-01-14T04:01:14.648Z,15.27
2018-01-14T04:03:42.120Z,15.50
2018-01-14T04:06:09.607Z,15.17
2018-01-14T04:08:37.099Z,14.70
2018-01-14T04:11:04.566Z,14.80
2018-01-14T04:13:32.079Z,14.40
2018-01-14T04:15:59.552Z,16.53
2018-01-14T04:18:26.997Z,14.30
2018-01-14T04:20:54.467Z,14.70
2018-01-14T04:23:21.950Z,16.20
2018-01-14T04:25:49.504Z,14.60
2018-01-14T04:28:16.945Z,16.50
2018-01-14T04:30:44.412Z,14.40
2018-01-14T04:33:11.858Z,14.27
2018-01-14T04:35:39.378Z,16.80
2018-01-14T04:38:06.829Z,16.17
2018-01-14T04:40:34.311Z,18.80
2018-01-14T04:43:01.758Z,15.20
2018-01-14T04:45:29.210Z,14.70
2018-01-14T04:47:56.678Z,16.10
2018-01-14T04:50:24.120Z,16.00
2018-01-14T04:52:51.584Z,17.43
2018-01-14T04:55:19.095Z,18.00
2018-01-14T04:57:46.620Z,18.87
2018-01-14T05:00:14.082Z,15.73
2018-01-14T05:02:41.550Z,15.20
2018-01-14T05:05:09.106Z,15.37
2018-01-14T05:07:36.578Z,16.03
2018-01-14T05:10:04.035Z,16.00
2018-01-14T05:12:31.542Z,17.73
2018-01-14T05:14:58.980Z,18.17
2018-01-14T05:17:26.421Z,17.70
2018-01-14T05:19:53.891Z,14.53
2018-01-14T05:22:21.339Z,18.90
2018-01-14T05:24:48.848Z,15.40
2018-01-14T05:27:16.308Z,16.17
2018-01-14T05:29:43.779Z,17.77
2018-01-14T05:32:11.345Z,15.20
2018-01-14T05:34:38.822Z,19.20
2018-01-14T05:37:06.266Z,17.97
2018-01-14T05:39:33.735Z,17.73
2018-01-14T05:42:01.186Z,17.80
2018-01-14T05:44:28.726Z,19.70
2018-01-14T05:46:56.175Z,18.17
2018-01-14T05:49:23.646Z,20.50
2018-01-14T05:51:51.098Z,18.83
2018-01-14T05:54:18.766Z,19.23
2018-01-14T05:56:46.300Z,18.53
2018-01-14T05:59:13.751Z,19.90
2018-01-14T06:01:41.253Z,19.80
2018-01-14T06:04:08.782Z,19.80
2018-01-14T06:06:36.252Z,20.70
2018-01-14T06:09:03.728Z,20.30
2018-01-14T06:11:31.204Z,20.90
2018-01-14T06:13:58.702Z,18.90
2018-01-14T06:16:26.188Z,19.83
2018-01-14T06:18:53.641Z,20.17
2018-01-14T06:21:21.115Z,19.70
2018-01-14T06:23:48.632Z,19.53
2018-01-14T06:26:16.104Z,19.63
2018-01-14T06:28:43.554Z,19.13
2018-01-14T06:31:11.037Z,20.20
2018-01-14T06:33:38.518Z,20.77
2018-01-14T06:36:06.026Z,20.73
2018-01-14T06:38:33.476Z,20.97
2018-01-14T06:41:00.940Z,19.73
2018-01-14T06:43:28.406Z,21.60
2018-01-14T06:45:55.866Z,20.27
2018-01-14T06:48:23.324Z,20.50
2018-01-14T06:50:50.787Z,21.80
2018-01-14T06:53:18.250Z,21.20
2018-01-14T06:55:45.711Z,21.60
2018-01-14T06:58:13.187Z,19.57
2018-01-14T07:00:40.692Z,20.00
2018-01-14T07:03:08.144Z,21.73
2018-01-14T07:05:35.608Z,19.57
2018-01-14T07:08:03.075Z,21.07
2018-01-14T07:10:30.539Z,22.57
2018-01-14T07:12:58.078Z,20.57
2018-01-14T07:15:25.529Z,21.37
2018-01-14T07:17:52.999Z,20.30
2018-01-14T07:20:20.454Z,18.40
2018-01-14T07:22:48.262Z,20.07
2018-01-14T07:25:15.760Z,21.40
2018-01-14T07:27:43.216Z,20.57
2018-01-14T07:30:10.687Z,21.13
2018-01-14T07:32:38.138Z,20.73
2018-01-14T07:35:05.750Z,21.43
2018-01-14T07:37:33.199Z,22.17
2018-01-14T07:40:00.765Z,21.03
2018-01-14T07:42:28.211Z,20.90
2018-01-14T07:44:55.679Z,21.17
2018-01-14T07:47:23.120Z,19.77
2018-01-14T07:49:50.588Z,22.17
2018-01-14T07:52:18.041Z,22.60
2018-01-14T07:54:45.607Z,22.47
2018-01-14T07:57:13.895Z,20.27
2018-01-14T07:59:41.388Z,20.73
2018-01-14T08:02:08.848Z,19.20
2018-01-14T08:04:36.315Z,22.73
2018-01-14T08:07:03.804Z,22.10
2018-01-14T08:09:31.251Z,20.00
2018-01-14T08:11:58.738Z,22.67
2018-01-14T08:14:26.203Z,19.63
2018-01-14T08:16:53.793Z,17.83
2018-01-14T08:19:21.255Z,19.80
2018-01-14T08:21:48.725Z,25.53
2018-01-14T08:24:16.228Z,19.67
2018-01-14T08:26:43.698Z,22.80
2018-01-14T08:29:11.158Z,20.30
2018-01-14T08:31:38.613Z,22.13
2018-01-14T08:34:06.062Z,20.70
2018-01-14T08:36:33.527Z,19.53
2018-01-14T08:39:00.969Z,19.10
2018-01-14T08:41:28.454Z,21.20
2018-01-14T08:43:55.907Z,17.60
2018-01-14T08:46:23.370Z,23.57
2018-01-14T08:48:50.842Z,18.00
2018-01-14T08:51:18.300Z,20.63
2018-01-14T08:53:45.778Z,18.70
2018-01-14T08:56:13.230Z,21.00
2018-01-14T08:58:40.707Z,19.90
2018-01-14T09:01:08.171Z,20.63
2018-01-14T09:03:36.779Z,20.10
2018-01-14T09:06:04.234Z,20.27
2018-01-14T09:08:31.963Z,20.90
2018-01-14T09:10:59.434Z,18.30
2018-01-14T09:13:26.921Z,21.10
2018-01-14T09:15:54.366Z,20.50
2018-01-14T09:18:21.838Z,18.73
2018-01-14T09:20:49.298Z,18.17
2018-01-14T09:23:16.782Z,19.97
2018-01-14T09:25:44.247Z,18.93
2018-01-14T09:28:11.741Z,18.00
2018-01-14T09:30:50.854Z,20.17
2018-01-14T09:33:18.332Z,19.50
2018-01-14T09:35:46.721Z,17.50
2018-01-14T09:38:14.192Z,19.00
2018-01-14T09:40:41.658Z,18.80
2018-01-14T09:43:09.143Z,16.00
2018-01-14T09:45:36.622Z,17.13
2018-01-14T09:48:04.061Z,17.80
2018-01-14T09:50:31.531Z,18.40
2018-01-14T09:52:58.974Z,18.10
2018-01-14T09:55:26.424Z,16.60
2018-01-14T09:57:53.891Z,19.17
2018-01-14T10:00:21.359Z,18.87
2018-01-14T10:02:48.818Z,16.47
2018-01-14T10:05:16.311Z,17.20
2018-01-14T10:07:43.786Z,16.57
2018-01-14T10:10:11.254Z,17.67
2018-01-14T10:12:38.710Z,16.60
2018-01-14T10:15:06.191Z,18.20
2018-01-14T10:17:33.701Z,15.20
2018-01-14T10:20:01.166Z,14.30
2018-01-14T10:22:28.618Z,16.97
2018-01-14T10:24:56.098Z,16.13
2018-01-14T10:27:23.573Z,17.13
2018-01-14T10:29:51.081Z,16.10
2018-01-14T10:32:18.554Z,15.50
2018-01-14T10:34:46.003Z,15.80
2018-01-14T10:37:13.473Z,14.90
2018-01-14T10:39:40.949Z,14.70
2018-01-14T10:42:08.425Z,15.53
2018-01-14T10:44:35.871Z,15.93
2018-01-14T10:47:03.380Z,15.57
2018-01-14T10:49:30.826Z,16.90
2018-01-14T10:51:58.274Z,16.90
2018-01-14T10:54:25.783Z,15.77
2018-01-14T10:56:53.311Z,14.87
2018-01-14T10:59:20.784Z,16.00
2018-01-14T11:01:48.235Z,15.97
2018-01-14T11:04:15.733Z,16.13
2018-01-14T11:06:43.187Z,14.07
2018-01-14T11:09:12.036Z,15.80
2018-01-14T11:11:38.113Z,15.03
2018-01-14T11:14:05.588Z,14.33
2018-01-14T11:16:33.040Z,15.60
2018-01-14T11:19:00.523Z,16.40
2018-01-14T11:21:27.974Z,13.70
2018-01-14T11:23:55.426Z,15.83
2018-01-14T11:26:22.890Z,14.87
2018-01-14T11:28:53.281Z,13.73
2018-01-14T11:31:20.758Z,15.73
2018-01-14T11:33:48.248Z,14.37
2018-01-14T11:36:15.721Z,15.83
2018-01-14T11:38:43.174Z,14.67
2018-01-14T11:41:10.648Z,15.03
2018-01-14T11:43:38.104Z,15.33
2018-01-14T11:46:05.560Z,14.40
2018-01-14T11:48:33.014Z,13.37
2018-01-14T11:51:00.491Z,15.13
2018-01-14T11:53:27.980Z,15.60
2018-01-14T11:55:55.443Z,14.10
2018-01-14T11:58:22.894Z,13.30
2018-01-14T12:00:50.367Z,13.70
2018-01-14T12:03:17.820Z,15.20
2018-01-14T12:05:45.271Z,15.93
2018-01-14T12:08:12.769Z,14.17
2018-01-14T12:10:40.268Z,14.03
2018-01-14T12:13:07.738Z,16.43
2018-01-14T12:15:35.315Z,14.47
2018-01-14T12:18:02.786Z,14.43
2018-01-14T12:20:30.318Z,15.93
2018-01-14T12:22:57.772Z,14.20
2018-01-14T12:25:25.227Z,13.97
2018-01-14T12:27:52.724Z,13.33
2018-01-14T12:30:20.178Z,13.13
2018-01-14T12:32:59.562Z,13.50
2018-01-14T12:35:27.006Z,12.60
2018-01-14T12:37:54.482Z,13.33
2018-01-14T12:40:21.924Z,14.07
2018-01-14T12:42:49.399Z,13.50
2018-01-14T12:45:16.866Z,13.27
2018-01-14T12:47:44.306Z,13.47
2018-01-14T12:50:11.763Z,14.60
2018-01-14T12:52:39.215Z,12.73
2018-01-14T12:55:06.690Z,13.43
2018-01-14T12:57:34.250Z,12.37
2018-01-14T13:00:01.727Z,13.50
2018-01-14T13:02:29.182Z,13.23
2018-01-14T13:04:56.676Z,13.03
2018-01-14T13:07:24.121Z,13.20
2018-01-14T13:09:51.586Z,10.97
2018-01-14T13:12:19.072Z,13.20
2018-01-14T13:14:46.550Z,12.93
2018-01-14T13:17:14.008Z,11.10
2018-01-14T13:19:41.464Z,12.37
2018-01-14T13:22:08.942Z,12.83
2018-01-14T13:24:36.471Z,12.53
2018-01-14T13:27:03.938Z,12.30
2018-01-14T13:29:31.483Z,12.30
2018-01-14T13:31:58.950Z,12.23
2018-01-14T13:34:26.460Z,11.70
2018-01-14T13:36:53.880Z,12.70
2018-01-14T13:39:21.317Z,12.63
2018-01-14T13:41:48.781Z,11.37
2018-01-14T13:44:16.231Z,12.27
2018-01-14T13:46:43.744Z,12.17
2018-01-14T13:49:11.194Z,13.67
2018-01-14T13:51:38.655Z,13.00
2018-01-14T13:54:06.105Z,14.63
2018-01-14T13:56:33.559Z,15.57
2018-01-14T13:59:01.036Z,14.60
2018-01-14T14:01:28.476Z,17.03
2018-01-14T14:03:55.959Z,14.60
2018-01-14T14:06:23.411Z,15.30
2018-01-14T14:08:50.865Z,14.07
2018-01-14T14:11:18.326Z,17.47
2018-01-14T14:13:45.831Z,16.03
2018-01-14T14:16:13.286Z,16.40
2018-01-14T14:18:40.815Z,15.80
2018-01-14T14:21:08.267Z,16.23
2018-01-14T14:23:35.838Z,15.80
2018-01-14T14:26:03.287Z,16.10
2018-01-14T14:28:30.772Z,16.83
2018-01-14T14:30:58.213Z,14.40
2018-01-14T14:33:25.683Z,15.50
2018-01-14T14:35:53.149Z,12.63
2018-01-14T14:38:20.633Z,14.90
2018-01-14T14:40:48.135Z,14.60
2018-01-14T14:43:15.698Z,15.97
2018-01-14T14:45:43.145Z,12.87
2018-01-14T14:48:10.622Z,16.70
2018-01-14T14:50:38.080Z,14.00
2018-01-14T14:53:05.546Z,13.80
2018-01-14T14:55:33.020Z,13.93
2018-01-14T14:58:00.470Z,14.37
2018-01-14T15:00:27.943Z,13.40
2018-01-14T15:02:55.428Z,14.80
2018-01-14T15:05:22.864Z,13.80
2018-01-14T15:07:50.314Z,14.30
2018-01-14T15:10:17.786Z,13.33
2018-01-14T15:12:45.236Z,14.50
2018-01-14T15:15:12.721Z,15.73
2018-01-14T15:17:40.171Z,14.27
2018-01-14T15:20:07.628Z,14.27
2018-01-14T15:22:35.372Z,14.00
2018-01-14T15:25:02.843Z,15.23
2018-01-14T15:27:30.324Z,17.90
2018-01-14T15:29:57.798Z,14.07
2018-01-14T15:32:25.255Z,15.07
2018-01-14T15:34:53.248Z,13.30
2018-01-14T15:37:21.115Z,25.90
2018-01-14T15:39:48.766Z,14.53
2018-01-14T15:42:16.283Z,13.00
2018-01-14T15:44:43.748Z,13.47
2018-01-14T15:47:11.225Z,15.13
2018-01-14T15:49:38.680Z,15.47
2018-01-14T15:52:06.138Z,13.80
2018-01-14T15:54:33.598Z,12.07
2018-01-14T15:57:01.060Z,13.27
2018-01-14T15:59:28.511Z,13.60
2018-01-14T16:01:55.994Z,15.43
2018-01-14T16:04:23.437Z,13.20
2018-01-14T16:06:50.911Z,15.17
2018-01-14T16:09:18.368Z,14.27
2018-01-14T16:11:45.851Z,14.20
2018-01-14T16:14:13.293Z,17.17
2018-01-14T16:16:40.775Z,16.00
2018-01-14T16:19:08.299Z,19.13
2018-01-14T16:21:35.780Z,19.13
2018-01-14T16:24:03.247Z,17.67
2018-01-14T16:26:30.731Z,18.40
2018-01-14T16:28:58.196Z,17.27
2018-01-14T16:31:25.691Z,15.50
2018-01-14T16:33:53.203Z,13.00
2018-01-14T16:36:20.652Z,12.23
2018-01-14T16:38:48.150Z,13.73
2018-01-14T16:41:15.648Z,13.50
2018-01-14T16:43:43.143Z,13.00
2018-01-14T16:46:10.609Z,13.20
2018-01-14T16:48:38.091Z,13.10
2018-01-14T16:51:05.588Z,13.40
2018-01-14T16:53:33.074Z,15.57
2018-01-14T16:56:00.549Z,12.27
2018-01-14T16:58:28.029Z,11.53
2018-01-14T17:00:55.580Z,10.83
2018-01-14T17:03:23.187Z,13.87
2018-01-14T17:05:50.883Z,11.27
2018-01-14T17:08:18.550Z,12.70
2018-01-14T17:10:46.036Z,12.43
2018-01-14T17:13:13.486Z,11.80
2018-01-14T17:15:40.971Z,11.60
2018-01-14T17:18:08.452Z,11.80
2018-01-14T17:20:35.925Z,11.30
2018-01-14T17:23:03.403Z,13.30
2018-01-14T17:25:30.903Z,16.03
2018-01-14T17:27:58.438Z,14.60
2018-01-14T17:30:25.934Z,11.70
2018-01-14T17:32:53.394Z,11.70
2018-01-14T17:35:21.070Z,12.43
2018-01-14T17:37:48.581Z,11.17
2018-01-14T17:40:16.015Z,11.43
2018-01-14T17:42:43.466Z,11.87
2018-01-14T17:45:10.929Z,10.97
2018-01-14T17:47:38.382Z,11.97
2018-01-14T17:50:05.854Z,10.30
2018-01-14T17:52:33.606Z,10.77
2018-01-14T17:55:01.070Z,12.00
2018-01-14T17:57:28.519Z,11.13
2018-01-14T17:59:55.961Z,13.17
2018-01-14T18:02:23.426Z,12.00
2018-01-14T18:04:50.912Z,12.23
2018-01-14T18:07:18.391Z,14.47
2018-01-14T18:09:45.828Z,15.27
2018-01-14T18:12:13.306Z,15.50
2018-01-14T18:14:40.774Z,15.37
2018-01-14T18:20:05.238Z,15.30
2018-01-14T18:22:32.781Z,13.40
2018-01-14T18:25:00.233Z,15.10
2018-01-14T18:27:27.689Z,12.90
2018-01-14T18:35:40.331Z,11.57
2018-01-14T18:38:07.805Z,11.23
2018-01-14T18:40:35.251Z,11.80
2018-01-14T18:43:02.819Z,12.20
2018-01-14T18:45:57.247Z,14.53
2018-01-14T18:48:24.723Z,12.13
2018-01-14T18:50:52.177Z,11.53
2018-01-14T18:53:19.659Z,11.67
2018-01-14T18:55:47.134Z,12.10
2018-01-14T18:58:14.591Z,13.20
2018-01-14T19:00:42.283Z,12.40
2018-01-14T19:03:09.730Z,13.20
2018-01-14T19:05:37.186Z,15.13
2018-01-14T19:08:04.627Z,14.93
2018-01-14T19:10:32.214Z,15.07
2018-01-14T19:12:59.747Z,15.53
2018-01-14T19:15:27.236Z,15.90
2018-01-14T19:17:54.711Z,14.93
2018-01-14T19:20:22.190Z,14.93
2018-01-14T19:22:49.640Z,14.60
2018-01-14T19:25:17.098Z,13.63
2018-01-14T19:27:44.566Z,14.90
2018-01-14T19:30:12.026Z,14.90
2018-01-14T19:32:39.517Z,14.17
2018-01-14T19:35:06.995Z,14.33
2018-01-14T19:37:34.497Z,15.00
2018-01-14T19:40:02.130Z,13.10
2018-01-14T19:42:29.845Z,15.70
2018-01-14T19:44:57.367Z,13.83
2018-01-14T19:47:24.846Z,13.20
2018-01-14T19:49:52.548Z,15.70
2018-01-14T19:52:20.329Z,14.97
2018-01-14T19:54:47.833Z,16.33
2018-01-14T19:57:15.628Z,12.70
2018-01-14T19:59:43.091Z,12.00
2018-01-14T20:02:10.620Z,12.20
2018-01-14T20:04:38.098Z,13.53
2018-01-14T20:07:05.648Z,12.37
2018-01-14T20:09:33.155Z,13.43
2018-01-14T20:12:00.653Z,15.40
2018-01-14T20:14:28.118Z,16.50
2018-01-14T20:16:55.567Z,15.73
2018-01-14T20:19:23.042Z,18.97
2018-01-14T20:21:50.582Z,16.73
2018-01-14T20:24:18.054Z,16.37
2018-01-14T20:26:45.519Z,17.73
2018-01-14T20:29:13.003Z,18.60
2018-01-14T20:31:40.457Z,17.17
2018-01-14T20:34:07.920Z,17.00
2018-01-14T20:36:35.369Z,16.70
2018-01-14T20:39:02.859Z,16.80
2018-01-14T20:41:30.328Z,16.80
2018-01-14T20:43:57.790Z,16.23
2018-01-14T20:46:25.268Z,18.33
2018-01-14T20:48:52.709Z,16.47
2018-01-14T20:51:20.170Z,15.40
2018-01-14T20:53:47.615Z,16.90
2018-01-14T20:56:15.619Z,14.20
2018-01-14T20:58:43.076Z,14.23
2018-01-14T21:01:10.571Z,15.57
2018-01-14T21:03:38.027Z,13.53
2018-01-14T21:06:05.494Z,15.97
2018-01-14T21:08:32.941Z,17.27
2018-01-14T21:11:00.413Z,16.43
2018-01-14T21:13:27.911Z,19.80
2018-01-14T21:15:55.400Z,19.70
2018-01-14T21:18:22.863Z,17.30
2018-01-14T21:20:50.358Z,17.20
2018-01-14T21:23:17.801Z,17.03
2018-01-14T21:25:45.295Z,13.43
2018-01-14T21:28:12.881Z,13.37
2018-01-14T21:30:40.354Z,12.70
2018-01-14T21:33:07.827Z,13.03
2018-01-14T21:35:35.387Z,13.73
2018-01-14T21:38:02.839Z,11.77
2018-01-14T21:40:30.311Z,12.97
2018-01-14T21:42:57.806Z,12.20
2018-01-14T21:45:25.265Z,11.70
2018-01-14T21:47:52.736Z,12.67
2018-01-14T21:50:20.270Z,12.40
2018-01-14T21:52:47.794Z,14.30
2018-01-14T21:55:15.266Z,14.13
2018-01-14T21:57:42.738Z,13.10
2018-01-14T22:00:10.223Z,12.33
2018-01-14T22:02:37.793Z,12.00
2018-01-14T22:05:05.267Z,13.57
2018-01-14T22:07:32.739Z,14.37
2018-01-14T22:10:00.304Z,13.80
2018-01-14T22:12:28.059Z,14.27
2018-01-14T22:14:55.527Z,16.23
2018-01-14T22:17:23.011Z,14.97
2018-01-14T22:19:50.547Z,14.90
2018-01-14T22:22:18.207Z,14.53
2018-01-14T22:24:45.670Z,14.73
2018-01-14T22:27:13.121Z,15.07
2018-01-14T22:29:40.602Z,16.40
2018-01-14T22:32:08.054Z,14.50
2018-01-14T22:34:35.534Z,13.60
2018-01-14T22:37:03.006Z,13.97
2018-01-14T22:39:30.496Z,15.53
2018-01-14T22:41:58.051Z,15.67
2018-01-14T22:44:25.601Z,13.03
2018-01-14T22:46:53.041Z,17.07
2018-01-14T22:49:20.523Z,15.63
2018-01-14T22:51:47.978Z,13.67
2018-01-14T22:54:15.535Z,17.03
2018-01-14T22:56:42.979Z,15.20
2018-01-14T22:59:10.474Z,12.90
2018-01-14T23:01:37.921Z,16.77
2018-01-14T23:04:05.398Z,15.30
2018-01-14T23:06:32.947Z,14.77
2018-01-14T23:09:00.407Z,15.90
2018-01-14T23:11:27.883Z,13.70
2018-01-14T23:13:55.337Z,13.33
2018-01-14T23:16:22.827Z,13.33
2018-01-14T23:18:50.279Z,13.80
2018-01-14T23:21:17.763Z,15.50
2018-01-14T23:23:45.327Z,15.30
2018-01-14T23:26:12.827Z,14.07
2018-01-14T23:28:40.269Z,13.90
2018-01-14T23:31:07.747Z,12.93
2018-01-14T23:33:35.206Z,14.23
2018-01-14T23:36:02.678Z,12.33
2018-01-14T23:38:30.138Z,12.40
2018-01-14T23:40:57.586Z,12.83
2018-01-14T23:43:25.050Z,12.20
2018-01-14T23:45:52.543Z,12.27
2018-01-14T23:48:20.012Z,14.33
2018-01-14T23:50:47.462Z,13.80
2018-01-14T23:53:14.936Z,14.77
2018-01-14T23:55:42.384Z,12.93
2018-01-14T23:58:09.854Z,11.77
